sensor_id;sensor_type;location;lat;lon;timestamp;pressure;altitude;pressure_sealevel;temperature;humidity
33949;BME280;20229;49.856;19.030;2023-02-18T00:00:24;101376.48;;;11.21;87.68
33949;BME280;20229;49.856;19.030;2023-02-18T00:05:32;101366.34;;;11.23;87.76
33949;BME280;20229;49.856;19.030;2023-02-18T00:10:49;101372.91;;;11.19;88.28
33949;BME280;20229;49.856;19.030;2023-02-18T00:15:53;101373.01;;;11.18;88.68
33949;BME280;20229;49.856;19.030;2023-02-18T00:21:15;101380.52;;;11.13;89.27
33949;BME280;20229;49.856;19.030;2023-02-18T00:26:19;101384.17;;;11.13;89.29
33949;BME280;20229;49.856;19.030;2023-02-18T00:31:40;101395.30;;;11.09;89.93
33949;BME280;20229;49.856;19.030;2023-02-18T00:36:44;101383.57;;;11.07;90.63
33949;BME280;20229;49.856;19.030;2023-02-18T00:42:06;101383.11;;;10.97;90.93
33949;BME280;20229;49.856;19.030;2023-02-18T00:47:09;101376.03;;;10.93;91.06
33949;BME280;20229;49.856;19.030;2023-02-18T00:52:32;101385.52;;;10.84;91.32
33949;BME280;20229;49.856;19.030;2023-02-18T00:57:35;101391.95;;;10.83;90.89
33949;BME280;20229;49.856;19.030;2023-02-18T01:02:57;101375.19;;;10.72;91.47
33949;BME280;20229;49.856;19.030;2023-02-18T01:08:01;101403.60;;;10.68;90.95
33949;BME280;20229;49.856;19.030;2023-02-18T01:13:24;101400.17;;;10.63;91.31
33949;BME280;20229;49.856;19.030;2023-02-18T01:18:28;101406.33;;;10.68;91.35
33949;BME280;20229;49.856;19.030;2023-02-18T01:23:49;101418.19;;;10.67;91.29
33949;BME280;20229;49.856;19.030;2023-02-18T01:28:52;101412.41;;;10.74;90.54
33949;BME280;20229;49.856;19.030;2023-02-18T01:34:14;101455.27;;;10.72;90.11
33949;BME280;20229;49.856;19.030;2023-02-18T01:39:18;101460.45;;;10.79;89.37
33949;BME280;20229;49.856;19.030;2023-02-18T01:44:40;101483.33;;;10.76;88.14
33949;BME280;20229;49.856;19.030;2023-02-18T01:49:50;101476.72;;;10.82;86.75
33949;BME280;20229;49.856;19.030;2023-02-18T01:55:06;101476.77;;;10.80;87.08
33949;BME280;20229;49.856;19.030;2023-02-18T02:00:15;101493.14;;;10.80;87.56
33949;BME280;20229;49.856;19.030;2023-02-18T02:05:33;101497.11;;;10.73;87.80
33949;BME280;20229;49.856;19.030;2023-02-18T02:10:48;101492.61;;;10.72;87.90
33949;BME280;20229;49.856;19.030;2023-02-18T02:16:08;101511.20;;;10.64;88.13
33949;BME280;20229;49.856;19.030;2023-02-18T02:21:25;101513.97;;;10.62;87.98
33949;BME280;20229;49.856;19.030;2023-02-18T02:26:39;101489.12;;;10.48;88.12
33949;BME280;20229;49.856;19.030;2023-02-18T02:42:20;101494.96;;;10.17;87.97
33949;BME280;20229;49.856;19.030;2023-02-18T02:52:44;101509.30;;;10.00;87.16
33949;BME280;20229;49.856;19.030;2023-02-18T02:57:52;101503.80;;;10.01;86.21
33949;BME280;20229;49.856;19.030;2023-02-18T03:03:09;101507.38;;;10.03;84.56
33949;BME280;20229;49.856;19.030;2023-02-18T03:18:50;101509.05;;;10.06;84.56
33949;BME280;20229;49.856;19.030;2023-02-18T03:24:00;101517.20;;;10.08;84.61
33949;BME280;20229;49.856;19.030;2023-02-18T03:29:06;101510.34;;;9.97;85.25
33949;BME280;20229;49.856;19.030;2023-02-18T03:34:15;101524.21;;;9.91;85.41
33949;BME280;20229;49.856;19.030;2023-02-18T03:39:26;101535.64;;;9.79;85.96
33949;BME280;20229;49.856;19.030;2023-02-18T03:44:30;101527.81;;;9.70;86.27
33949;BME280;20229;49.856;19.030;2023-02-18T03:49:49;101557.38;;;9.57;86.80
33949;BME280;20229;49.856;19.030;2023-02-18T03:54:52;101542.06;;;9.54;86.12
33949;BME280;20229;49.856;19.030;2023-02-18T04:00:15;101557.10;;;9.41;85.00
33949;BME280;20229;49.856;19.030;2023-02-18T04:05:19;101557.33;;;9.35;85.21
33949;BME280;20229;49.856;19.030;2023-02-18T04:10:40;101560.52;;;9.23;85.81
33949;BME280;20229;49.856;19.030;2023-02-18T04:15:44;101567.95;;;9.18;86.14
33949;BME280;20229;49.856;19.030;2023-02-18T04:21:07;101562.97;;;9.05;86.03
33949;BME280;20229;49.856;19.030;2023-02-18T04:26:10;101565.91;;;8.99;84.56
33949;BME280;20229;49.856;19.030;2023-02-18T04:31:32;101580.62;;;8.94;83.51
33949;BME280;20229;49.856;19.030;2023-02-18T04:36:35;101576.31;;;8.88;83.13
33949;BME280;20229;49.856;19.030;2023-02-18T04:41:58;101566.74;;;8.76;80.84
33949;BME280;20229;49.856;19.030;2023-02-18T04:47:02;101563.18;;;8.74;79.96
33949;BME280;20229;49.856;19.030;2023-02-18T04:52:24;101575.16;;;8.69;81.00
33949;BME280;20229;49.856;19.030;2023-02-18T04:57:27;101568.90;;;8.67;81.55
33949;BME280;20229;49.856;19.030;2023-02-18T05:02:49;101580.98;;;8.58;80.87
33949;BME280;20229;49.856;19.030;2023-02-18T05:07:52;101582.81;;;8.57;79.28
33949;BME280;20229;49.856;19.030;2023-02-18T05:13:15;101586.65;;;8.52;72.72
33949;BME280;20229;49.856;19.030;2023-02-18T05:18:19;101584.72;;;8.55;71.33
33949;BME280;20229;49.856;19.030;2023-02-18T05:23:41;101586.78;;;8.47;71.07
33949;BME280;20229;49.856;19.030;2023-02-18T05:28:44;101590.55;;;8.43;71.25
33949;BME280;20229;49.856;19.030;2023-02-18T05:34:07;101607.99;;;8.36;72.22
33949;BME280;20229;49.856;19.030;2023-02-18T05:39:10;101596.88;;;8.44;72.48
33949;BME280;20229;49.856;19.030;2023-02-18T05:44:32;101599.23;;;8.54;70.87
33949;BME280;20229;49.856;19.030;2023-02-18T05:49:37;101600.67;;;8.66;70.26
33949;BME280;20229;49.856;19.030;2023-02-18T05:54:58;101618.71;;;8.69;69.93
33949;BME280;20229;49.856;19.030;2023-02-18T06:00:03;101625.85;;;8.73;69.61
33949;BME280;20229;49.856;19.030;2023-02-18T06:05:25;101651.15;;;8.76;67.58
33949;BME280;20229;49.856;19.030;2023-02-18T06:10:28;101625.42;;;8.85;66.94
33949;BME280;20229;49.856;19.030;2023-02-18T06:15:50;101629.81;;;8.89;65.70
33949;BME280;20229;49.856;19.030;2023-02-18T06:20:54;101632.34;;;8.95;65.34
33949;BME280;20229;49.856;19.030;2023-02-18T06:26:16;101630.56;;;8.94;66.05
33949;BME280;20229;49.856;19.030;2023-02-18T06:31:19;101647.62;;;8.99;66.04
33949;BME280;20229;49.856;19.030;2023-02-18T06:36:42;101650.34;;;8.99;64.84
33949;BME280;20229;49.856;19.030;2023-02-18T06:41:45;101659.22;;;9.04;66.03
33949;BME280;20229;49.856;19.030;2023-02-18T06:47:07;101660.17;;;9.03;65.32
33949;BME280;20229;49.856;19.030;2023-02-18T06:52:10;101653.58;;;9.10;62.97
33949;BME280;20229;49.856;19.030;2023-02-18T06:57:34;101672.53;;;9.14;61.17
33949;BME280;20229;49.856;19.030;2023-02-18T07:02:37;101676.83;;;9.21;59.61
33949;BME280;20229;49.856;19.030;2023-02-18T07:07:59;101678.66;;;9.20;60.88
33949;BME280;20229;49.856;19.030;2023-02-18T07:13:03;101676.61;;;9.27;62.19
33949;BME280;20229;49.856;19.030;2023-02-18T07:18:25;101681.21;;;9.25;62.04
33949;BME280;20229;49.856;19.030;2023-02-18T07:23:28;101683.83;;;9.28;61.63
33949;BME280;20229;49.856;19.030;2023-02-18T07:28:51;101668.44;;;9.27;62.49
33949;BME280;20229;49.856;19.030;2023-02-18T07:33:54;101671.66;;;9.38;62.08
33949;BME280;20229;49.856;19.030;2023-02-18T07:39:16;101664.16;;;9.45;62.98
33949;BME280;20229;49.856;19.030;2023-02-18T07:44:22;101681.96;;;9.55;62.46
33949;BME280;20229;49.856;19.030;2023-02-18T07:49:42;101670.84;;;9.61;62.94
33949;BME280;20229;49.856;19.030;2023-02-18T07:54:45;101667.82;;;9.69;61.86
33949;BME280;20229;49.856;19.030;2023-02-18T08:00:08;101669.59;;;9.70;62.86
33949;BME280;20229;49.856;19.030;2023-02-18T08:05:12;101665.91;;;9.71;62.28
33949;BME280;20229;49.856;19.030;2023-02-18T08:10:33;101673.27;;;9.69;62.72
33949;BME280;20229;49.856;19.030;2023-02-18T08:15:37;101674.09;;;9.71;63.04
33949;BME280;20229;49.856;19.030;2023-02-18T08:20:59;101676.70;;;9.74;63.60
33949;BME280;20229;49.856;19.030;2023-02-18T08:26:03;101676.26;;;9.86;64.81
33949;BME280;20229;49.856;19.030;2023-02-18T08:31:28;101677.06;;;9.88;66.83
33949;BME280;20229;49.856;19.030;2023-02-18T08:36:31;101672.39;;;9.92;66.94
33949;BME280;20229;49.856;19.030;2023-02-18T08:41:51;101671.61;;;9.88;66.27
33949;BME280;20229;49.856;19.030;2023-02-18T08:46:55;101670.66;;;9.89;65.83
33949;BME280;20229;49.856;19.030;2023-02-18T08:52:17;101658.98;;;9.86;65.90
33949;BME280;20229;49.856;19.030;2023-02-18T08:57:21;101653.48;;;9.87;66.12
33949;BME280;20229;49.856;19.030;2023-02-18T09:02:43;101656.20;;;9.87;66.36
33949;BME280;20229;49.856;19.030;2023-02-18T09:07:47;101662.32;;;9.94;65.77
33949;BME280;20229;49.856;19.030;2023-02-18T09:13:09;101659.63;;;9.92;64.85
33949;BME280;20229;49.856;19.030;2023-02-18T09:18:12;101671.50;;;9.91;64.69
33949;BME280;20229;49.856;19.030;2023-02-18T09:23:35;101663.44;;;9.88;65.17
33949;BME280;20229;49.856;19.030;2023-02-18T09:29:13;101659.63;;;9.92;66.39
33949;BME280;20229;49.856;19.030;2023-02-18T09:34:39;101666.89;;;9.93;67.86
33949;BME280;20229;49.856;19.030;2023-02-18T09:39:42;101658.33;;;10.02;69.24
33949;BME280;20229;49.856;19.030;2023-02-18T09:45:09;101657.25;;;10.06;72.62
33949;BME280;20229;49.856;19.030;2023-02-18T09:50:21;101647.72;;;10.18;71.97
33949;BME280;20229;49.856;19.030;2023-02-18T09:55:35;101644.48;;;10.32;69.43
33949;BME280;20229;49.856;19.030;2023-02-18T10:00:50;101648.77;;;10.60;64.50
33949;BME280;20229;49.856;19.030;2023-02-18T10:06:06;101643.27;;;10.61;61.73
33949;BME280;20229;49.856;19.030;2023-02-18T10:11:13;101620.79;;;10.55;55.13
33949;BME280;20229;49.856;19.030;2023-02-18T10:16:24;101603.65;;;10.51;56.63
33949;BME280;20229;49.856;19.030;2023-02-18T10:21:31;101597.98;;;10.56;57.60
33949;BME280;20229;49.856;19.030;2023-02-18T10:26:49;101600.84;;;10.52;57.27
33949;BME280;20229;49.856;19.030;2023-02-18T10:31:58;101596.09;;;10.58;57.18
33949;BME280;20229;49.856;19.030;2023-02-18T10:42:45;101581.05;;;10.47;58.69
33949;BME280;20229;49.856;19.030;2023-02-18T10:48:05;101583.59;;;10.30;60.23
33949;BME280;20229;49.856;19.030;2023-02-18T10:53:25;101584.69;;;10.24;61.87
33949;BME280;20229;49.856;19.030;2023-02-18T10:58:33;101590.46;;;10.17;63.81
33949;BME280;20229;49.856;19.030;2023-02-18T11:03:42;101583.36;;;10.13;63.18
33949;BME280;20229;49.856;19.030;2023-02-18T11:08:47;101567.23;;;10.06;64.12
33949;BME280;20229;49.856;19.030;2023-02-18T11:13:57;101564.02;;;10.19;65.23
33949;BME280;20229;49.856;19.030;2023-02-18T11:19:01;101549.29;;;10.23;65.33
33949;BME280;20229;49.856;19.030;2023-02-18T11:24:14;101553.70;;;10.27;66.06
33949;BME280;20229;49.856;19.030;2023-02-18T11:29:26;101543.19;;;10.16;66.79
33949;BME280;20229;49.856;19.030;2023-02-18T11:34:33;101522.53;;;10.11;67.82
33949;BME280;20229;49.856;19.030;2023-02-18T11:39:52;101507.41;;;10.02;68.67
33949;BME280;20229;49.856;19.030;2023-02-18T11:44:59;101498.34;;;10.01;69.67
33949;BME280;20229;49.856;19.030;2023-02-18T11:50:21;101489.40;;;9.98;70.48
33949;BME280;20229;49.856;19.030;2023-02-18T11:55:27;101461.88;;;10.04;71.44
33949;BME280;20229;49.856;19.030;2023-02-18T12:00:44;101466.95;;;9.91;71.64
33949;BME280;20229;49.856;19.030;2023-02-18T12:05:49;101443.85;;;9.78;72.30
33949;BME280;20229;49.856;19.030;2023-02-18T12:11:13;101443.49;;;9.65;73.71
33949;BME280;20229;49.856;19.030;2023-02-18T12:21:44;101407.58;;;9.54;73.83
33949;BME280;20229;49.856;19.030;2023-02-18T12:32:11;101389.10;;;9.40;75.29
33949;BME280;20229;49.856;19.030;2023-02-18T12:37:29;101394.55;;;9.40;74.43
33949;BME280;20229;49.856;19.030;2023-02-18T12:48:04;101366.49;;;9.15;76.75
33949;BME280;20229;49.856;19.030;2023-02-18T12:53:17;101341.76;;;8.97;79.76
33949;BME280;20229;49.856;19.030;2023-02-18T12:58:36;101322.55;;;8.78;79.32
33949;BME280;20229;49.856;19.030;2023-02-18T13:03:50;101301.08;;;8.71;81.71
33949;BME280;20229;49.856;19.030;2023-02-18T13:09:02;101291.18;;;8.68;81.42
33949;BME280;20229;49.856;19.030;2023-02-18T13:14:15;101272.32;;;8.64;83.45
33949;BME280;20229;49.856;19.030;2023-02-18T13:19:30;101257.11;;;8.58;83.83
33949;BME280;20229;49.856;19.030;2023-02-18T13:24:39;101239.25;;;8.51;83.88
33949;BME280;20229;49.856;19.030;2023-02-18T13:29:53;101238.26;;;8.53;84.80
33949;BME280;20229;49.856;19.030;2023-02-18T13:35:07;101201.80;;;8.57;86.75
33949;BME280;20229;49.856;19.030;2023-02-18T13:40:18;101177.88;;;8.66;87.97
33949;BME280;20229;49.856;19.030;2023-02-18T13:50:41;101170.30;;;8.74;87.93
33949;BME280;20229;49.856;19.030;2023-02-18T13:55:54;101159.53;;;8.71;88.83
33949;BME280;20229;49.856;19.030;2023-02-18T14:01:05;101137.77;;;8.71;88.48
33949;BME280;20229;49.856;19.030;2023-02-18T14:06:15;101135.88;;;8.73;89.66
33949;BME280;20229;49.856;19.030;2023-02-18T14:11:29;101110.92;;;8.83;91.19
33949;BME280;20229;49.856;19.030;2023-02-18T14:21:47;101086.06;;;9.12;92.17
33949;BME280;20229;49.856;19.030;2023-02-18T14:26:51;101078.23;;;9.24;91.88
33949;BME280;20229;49.856;19.030;2023-02-18T14:32:02;101072.25;;;9.37;93.21
33949;BME280;20229;49.856;19.030;2023-02-18T14:53:03;101024.84;;;9.60;96.38
33949;BME280;20229;49.856;19.030;2023-02-18T15:03:21;101001.64;;;9.70;96.18
33949;BME280;20229;49.856;19.030;2023-02-18T15:08:36;100999.79;;;9.70;95.70
33949;BME280;20229;49.856;19.030;2023-02-18T15:13:43;100989.63;;;9.74;97.58
33949;BME280;20229;49.856;19.030;2023-02-18T15:19:01;100983.15;;;9.76;97.49
33949;BME280;20229;49.856;19.030;2023-02-18T15:24:08;100963.77;;;9.83;98.76
33949;BME280;20229;49.856;19.030;2023-02-18T15:29:26;100961.93;;;9.83;98.88
33949;BME280;20229;49.856;19.030;2023-02-18T15:34:35;100957.05;;;9.90;98.07
33949;BME280;20229;49.856;19.030;2023-02-18T15:39:47;100944.21;;;9.92;99.80
33949;BME280;20229;49.856;19.030;2023-02-18T15:45:00;100941.91;;;10.01;100.00
33949;BME280;20229;49.856;19.030;2023-02-18T15:50:20;100940.88;;;10.04;99.49
33949;BME280;20229;49.856;19.030;2023-02-18T15:55:29;100935.03;;;10.12;100.00
33949;BME280;20229;49.856;19.030;2023-02-18T16:00:47;100917.84;;;10.10;100.00
33949;BME280;20229;49.856;19.030;2023-02-18T16:11:11;100906.62;;;10.16;99.67
33949;BME280;20229;49.856;19.030;2023-02-18T16:16:23;100908.08;;;10.23;98.86
33949;BME280;20229;49.856;19.030;2023-02-18T16:21:36;100907.11;;;10.24;98.46
33949;BME280;20229;49.856;19.030;2023-02-18T16:26:42;100904.91;;;10.32;97.16
33949;BME280;20229;49.856;19.030;2023-02-18T16:31:56;100908.43;;;10.34;96.11
33949;BME280;20229;49.856;19.030;2023-02-18T16:37:00;100918.06;;;10.41;95.45
33949;BME280;20229;49.856;19.030;2023-02-18T16:42:22;100916.20;;;10.42;93.71
33949;BME280;20229;49.856;19.030;2023-02-18T16:47:26;100937.66;;;10.49;92.99
33949;BME280;20229;49.856;19.030;2023-02-18T16:52:49;100953.07;;;10.50;91.01
33949;BME280;20229;49.856;19.030;2023-02-18T16:57:53;100933.55;;;10.58;90.57
33949;BME280;20229;49.856;19.030;2023-02-18T17:03:15;100961.73;;;10.59;90.28
33949;BME280;20229;49.856;19.030;2023-02-18T17:08:20;100964.40;;;10.60;90.42
33949;BME280;20229;49.856;19.030;2023-02-18T17:13:40;100968.41;;;10.53;91.73
33949;BME280;20229;49.856;19.030;2023-02-18T17:18:44;100978.52;;;10.51;92.11
33949;BME280;20229;49.856;19.030;2023-02-18T17:24:14;100980.68;;;10.44;92.86
33949;BME280;20229;49.856;19.030;2023-02-18T17:29:17;100985.31;;;10.42;92.79
33949;BME280;20229;49.856;19.030;2023-02-18T17:34:32;100983.86;;;10.35;92.87
33949;BME280;20229;49.856;19.030;2023-02-18T17:39:39;100989.33;;;10.35;92.92
33949;BME280;20229;49.856;19.030;2023-02-18T17:45:00;101005.05;;;10.30;92.72
33949;BME280;20229;49.856;19.030;2023-02-18T17:50:04;100989.42;;;10.34;92.36
33949;BME280;20229;49.856;19.030;2023-02-18T17:55:32;101005.88;;;10.32;91.69
33949;BME280;20229;49.856;19.030;2023-02-18T18:00:43;100996.63;;;10.35;91.07
33949;BME280;20229;49.856;19.030;2023-02-18T18:05:50;100998.48;;;10.34;90.93
33949;BME280;20229;49.856;19.030;2023-02-18T18:10:59;100981.07;;;10.37;90.51
33949;BME280;20229;49.856;19.030;2023-02-18T18:16:16;101031.23;;;10.34;89.68
33949;BME280;20229;49.856;19.030;2023-02-18T18:21:22;101031.91;;;10.39;89.60
33949;BME280;20229;49.856;19.030;2023-02-18T18:26:41;101040.29;;;10.35;90.25
33949;BME280;20229;49.856;19.030;2023-02-18T18:31:44;101039.56;;;10.31;90.12
33949;BME280;20229;49.856;19.030;2023-02-18T18:37:06;101048.98;;;10.24;89.99
33949;BME280;20229;49.856;19.030;2023-02-18T18:42:11;101058.13;;;10.23;88.99
33949;BME280;20229;49.856;19.030;2023-02-18T18:47:32;101066.62;;;10.17;87.83
33949;BME280;20229;49.856;19.030;2023-02-18T18:52:35;101074.65;;;10.20;86.72
33949;BME280;20229;49.856;19.030;2023-02-18T18:57:58;101084.77;;;10.18;86.06
33949;BME280;20229;49.856;19.030;2023-02-18T19:03:03;101093.84;;;10.18;85.30
33949;BME280;20229;49.856;19.030;2023-02-18T19:08:24;101107.63;;;10.15;85.44
33949;BME280;20229;49.856;19.030;2023-02-18T19:13:29;101109.33;;;10.18;84.34
33949;BME280;20229;49.856;19.030;2023-02-18T19:18:50;101114.93;;;10.15;84.49
33949;BME280;20229;49.856;19.030;2023-02-18T19:23:54;101106.60;;;10.18;83.55
33949;BME280;20229;49.856;19.030;2023-02-18T19:29:17;101110.41;;;10.14;84.39
33949;BME280;20229;49.856;19.030;2023-02-18T19:34:25;101112.20;;;10.15;84.27
33949;BME280;20229;49.856;19.030;2023-02-18T19:39:41;101139.67;;;10.10;83.68
33949;BME280;20229;49.856;19.030;2023-02-18T19:44:44;101138.66;;;10.13;83.77
33949;BME280;20229;49.856;19.030;2023-02-18T19:50:08;101148.92;;;10.08;83.32
33949;BME280;20229;49.856;19.030;2023-02-18T19:55:12;101149.70;;;10.10;82.67
33949;BME280;20229;49.856;19.030;2023-02-18T20:00:33;101153.55;;;10.05;82.71
33949;BME280;20229;49.856;19.030;2023-02-18T20:05:36;101153.40;;;10.09;82.87
33949;BME280;20229;49.856;19.030;2023-02-18T20:10:58;101161.88;;;10.02;83.10
33949;BME280;20229;49.856;19.030;2023-02-18T20:16:05;101150.03;;;10.03;82.99
33949;BME280;20229;49.856;19.030;2023-02-18T20:21:23;101173.75;;;10.01;82.81
33949;BME280;20229;49.856;19.030;2023-02-18T20:26:28;101166.31;;;10.05;82.60
33949;BME280;20229;49.856;19.030;2023-02-18T20:31:49;101176.47;;;10.01;82.63
33949;BME280;20229;49.856;19.030;2023-02-18T20:36:52;101178.23;;;10.02;82.52
33949;BME280;20229;49.856;19.030;2023-02-18T20:42:15;101193.87;;;9.99;82.83
33949;BME280;20229;49.856;19.030;2023-02-18T20:47:18;101184.66;;;10.01;82.59
33949;BME280;20229;49.856;19.030;2023-02-18T20:52:41;101200.34;;;9.96;82.76
33949;BME280;20229;49.856;19.030;2023-02-18T20:57:44;101202.05;;;9.99;82.47
33949;BME280;20229;49.856;19.030;2023-02-18T21:03:06;101207.63;;;9.96;82.53
33949;BME280;20229;49.856;19.030;2023-02-18T21:08:11;101216.64;;;9.98;82.33
33949;BME280;20229;49.856;19.030;2023-02-18T21:13:32;101223.12;;;9.95;82.35
33949;BME280;20229;49.856;19.030;2023-02-18T21:18:36;101225.80;;;9.97;82.50
33949;BME280;20229;49.856;19.030;2023-02-18T21:23:58;101246.86;;;9.93;82.34
33949;BME280;20229;49.856;19.030;2023-02-18T21:29:04;101246.78;;;9.95;81.83
33949;BME280;20229;49.856;19.030;2023-02-18T21:34:23;101253.20;;;9.94;81.80
33949;BME280;20229;49.856;19.030;2023-02-18T21:39:28;101257.69;;;9.95;81.25
33949;BME280;20229;49.856;19.030;2023-02-18T21:44:49;101258.66;;;9.94;81.18
33949;BME280;20229;49.856;19.030;2023-02-18T21:49:52;101264.03;;;9.95;80.66
33949;BME280;20229;49.856;19.030;2023-02-18T21:55:15;101262.31;;;9.93;80.90
33949;BME280;20229;49.856;19.030;2023-02-18T22:00:18;101263.06;;;9.96;80.76
33949;BME280;20229;49.856;19.030;2023-02-18T22:05:40;101284.08;;;9.94;80.69
33949;BME280;20229;49.856;19.030;2023-02-18T22:10:44;101279.42;;;9.96;80.65
33949;BME280;20229;49.856;19.030;2023-02-18T22:16:06;101277.79;;;9.92;80.88
33949;BME280;20229;49.856;19.030;2023-02-18T22:21:09;101298.60;;;9.95;81.74
33949;BME280;20229;49.856;19.030;2023-02-18T22:26:32;101308.09;;;9.86;83.94
33949;BME280;20229;49.856;19.030;2023-02-18T22:31:35;101311.20;;;9.77;85.14
33949;BME280;20229;49.856;19.030;2023-02-18T22:36:57;101310.84;;;9.64;85.62
33949;BME280;20229;49.856;19.030;2023-02-18T22:42:01;101316.45;;;9.61;86.33
33949;BME280;20229;49.856;19.030;2023-02-18T22:47:23;101321.40;;;9.51;87.47
33949;BME280;20229;49.856;19.030;2023-02-18T22:52:26;101323.16;;;9.52;87.17
33949;BME280;20229;49.856;19.030;2023-02-18T22:57:49;101328.87;;;9.46;87.13
33949;BME280;20229;49.856;19.030;2023-02-18T23:02:52;101346.17;;;9.45;88.67
33949;BME280;20229;49.856;19.030;2023-02-18T23:08:15;101387.57;;;9.33;89.39
33949;BME280;20229;49.856;19.030;2023-02-18T23:13:18;101377.79;;;9.27;90.96
33949;BME280;20229;49.856;19.030;2023-02-18T23:18:41;101400.13;;;9.14;92.30
33949;BME280;20229;49.856;19.030;2023-02-18T23:23:49;101397.75;;;9.04;91.41
33949;BME280;20229;49.856;19.030;2023-02-18T23:29:07;101419.38;;;8.85;92.51
33949;BME280;20229;49.856;19.030;2023-02-18T23:34:13;101430.38;;;8.82;93.18
33949;BME280;20229;49.856;19.030;2023-02-18T23:39:33;101449.73;;;8.75;92.53
33949;BME280;20229;49.856;19.030;2023-02-18T23:44:36;101451.74;;;8.70;93.47
33949;BME280;20229;49.856;19.030;2023-02-18T23:49:59;101443.20;;;8.55;94.15
33949;BME280;20229;49.856;19.030;2023-02-18T23:55:02;101438.78;;;8.51;93.88
